Time;durP1;ratioP1;P1;durP2;ratioP2;P2;SDS_P1;SDS_P2;PMS_P1;PMS_P2;Temp;Humidity;BMP_temperature;BMP_pressure;BME280_temperature;BME280_humidity;BME280_pressure;Samples;Min_cycle;Max_cycle;Signal;HPM_P1;HPM_P2
2021/05/17 00:01:15;;;;;;;11.48;4.18;;;;;;;9.83;100.00;99830.44;6226455;28;20050;-77
2021/05/17 00:04:17;;;;;;;7.63;3.80;;;;;;;9.81;100.00;99830.53;6225956;28;20050;-77
2021/05/17 00:07:19;;;;;;;6.50;3.58;;;;;;;9.84;100.00;99824.22;6226293;28;20054;-77
2021/05/17 00:10:21;;;;;;;7.07;3.65;;;;;;;9.84;100.00;99829.47;6226003;28;20465;-77
2021/05/17 00:13:22;;;;;;;10.90;4.05;;;;;;;9.87;100.00;99832.75;6225922;28;20042;-77
2021/05/17 00:16:23;;;;;;;7.80;4.18;;;;;;;9.91;100.00;99834.25;6225867;28;20413;-77
2021/05/17 00:19:25;;;;;;;9.45;3.20;;;;;;;9.96;100.00;99839.19;6225861;28;20061;-77
2021/05/17 00:22:27;;;;;;;7.30;3.80;;;;;;;9.91;100.00;99836.88;6226004;28;20061;-77
2021/05/17 00:25:29;;;;;;;11.23;3.35;;;;;;;9.99;100.00;99833.75;6225576;28;20564;-77
2021/05/17 00:28:30;;;;;;;6.97;3.10;;;;;;;9.98;100.00;99839.91;6225795;28;20057;-77
2021/05/17 00:31:31;;;;;;;6.47;3.53;;;;;;;9.99;100.00;99841.63;6225351;28;20077;-76
2021/05/17 00:34:32;;;;;;;8.98;3.97;;;;;;;10.02;100.00;99844.03;6224679;28;20112;-76
2021/05/17 00:37:34;;;;;;;7.53;3.72;;;;;;;10.05;100.00;99845.63;6225846;28;20096;-77
2021/05/17 00:40:36;;;;;;;7.32;3.47;;;;;;;10.05;100.00;99843.00;6226166;28;20050;-77
2021/05/17 00:43:38;;;;;;;7.97;3.67;;;;;;;10.06;100.00;99847.31;6225845;28;20057;-77
2021/05/17 00:46:40;;;;;;;7.63;3.55;;;;;;;10.08;100.00;99848.91;6225780;28;20525;-76
2021/05/17 00:49:43;;;;;;;8.77;3.33;;;;;;;10.04;100.00;99849.19;6225984;28;20461;-77
2021/05/17 00:52:46;;;;;;;3.53;2.40;;;;;;;10.02;100.00;99841.41;6225949;28;20137;-76
2021/05/17 00:55:48;;;;;;;9.25;3.28;;;;;;;10.02;100.00;99841.41;6226050;28;20058;-76
2021/05/17 00:58:49;;;;;;;7.45;3.40;;;;;;;10.04;100.00;99838.69;6225584;28;20050;-77
2021/05/17 01:01:50;;;;;;;7.47;3.30;;;;;;;10.01;100.00;99838.88;6225173;28;20046;-76
2021/05/17 01:04:51;;;;;;;6.22;3.42;;;;;;;10.00;100.00;99840.69;6224910;28;20388;-77
2021/05/17 01:07:53;;;;;;;8.45;3.25;;;;;;;9.97;100.00;99840.88;6225170;28;20054;-77
2021/05/17 01:10:56;;;;;;;4.15;3.40;;;;;;;9.90;100.00;99842.19;6224636;28;20054;-77
2021/05/17 01:14:00;;;;;;;5.80;3.83;;;;;;;9.84;100.00;99840.81;6224503;28;20510;-76
2021/05/17 01:17:02;;;;;;;8.13;3.58;;;;;;;9.88;100.00;99841.47;6224405;28;20049;-76
2021/05/17 01:20:07;;;;;;;6.85;3.70;;;;;;;9.84;100.00;99851.31;6224710;28;20450;-76
2021/05/17 01:23:31;;;;;;;7.70;4.32;;;;;;;9.84;100.00;99846.06;6224333;28;20062;-76
2021/05/17 01:26:33;;;;;;;5.28;3.63;;;;;;;9.81;100.00;99856.78;6224313;28;20050;-76
2021/05/17 01:29:36;;;;;;;7.40;4.15;;;;;;;9.75;100.00;99849.28;6224266;28;20053;-77
2021/05/17 01:32:37;;;;;;;8.77;4.28;;;;;;;9.70;100.00;99850.53;6224016;28;20054;-77
2021/05/17 01:35:41;;;;;;;6.93;4.18;;;;;;;9.72;100.00;99852.13;6224002;28;20115;-77
2021/05/17 01:38:44;;;;;;;9.32;4.68;;;;;;;9.68;100.00;99866.38;6224929;28;20050;-76
2021/05/17 01:41:47;;;;;;;5.80;3.90;;;;;;;9.63;100.00;99865.81;6248101;28;20402;-77
2021/05/17 01:44:49;;;;;;;4.45;3.70;;;;;;;9.61;100.00;99872.94;6239185;28;20076;-76
2021/05/17 01:47:50;;;;;;;8.27;4.35;;;;;;;9.59;100.00;99865.19;6248413;28;20493;-76
2021/05/17 01:50:51;;;;;;;6.88;4.03;;;;;;;9.62;100.00;99864.97;6248366;28;20060;-76
2021/05/17 01:53:53;;;;;;;5.10;3.45;;;;;;;9.65;100.00;99871.81;6247878;28;20056;-76
2021/05/17 01:56:56;;;;;;;7.65;3.78;;;;;;;9.66;100.00;99869.06;6248234;28;20045;-76
2021/05/17 01:59:57;;;;;;;8.02;3.85;;;;;;;9.64;100.00;99867.50;6244074;28;20049;-76
2021/05/17 02:02:59;;;;;;;5.68;3.72;;;;;;;9.62;100.00;99875.44;6243624;28;20572;-76
2021/05/17 02:06:00;;;;;;;8.18;4.18;;;;;;;9.60;100.00;99879.97;6247916;28;20056;-76
2021/05/17 02:09:03;;;;;;;7.53;3.30;;;;;;;9.61;100.00;99873.78;6248079;28;20058;-76
2021/05/17 02:12:05;;;;;;;4.20;3.60;;;;;;;9.65;100.00;99877.88;6247777;28;20049;-76
2021/05/17 02:15:06;;;;;;;6.55;3.75;;;;;;;9.63;100.00;99876.31;6247335;28;20498;-76
2021/05/17 02:18:09;;;;;;;4.38;3.30;;;;;;;9.61;100.00;99870.31;6247618;28;20460;-77
2021/05/17 02:21:11;;;;;;;9.95;3.38;;;;;;;9.57;100.00;99869.66;6247499;28;20398;-76
2021/05/17 02:24:14;;;;;;;4.70;3.05;;;;;;;9.54;100.00;99872.50;6247379;28;20060;-76
2021/05/17 02:27:16;;;;;;;5.72;3.50;;;;;;;9.44;100.00;99870.53;6247334;28;20057;-76
2021/05/17 02:30:19;;;;;;;4.60;2.92;;;;;;;9.39;100.00;99873.44;6247460;28;20049;-76
2021/05/17 02:33:20;;;;;;;6.85;3.20;;;;;;;9.25;100.00;99868.22;6244258;23;20538;-77
2021/05/17 02:36:22;;;;;;;4.10;3.50;;;;;;;9.23;100.00;99868.31;6198183;28;20049;-77
2021/05/17 02:39:24;;;;;;;6.43;3.85;;;;;;;9.22;100.00;99866.66;6198807;28;20053;-77
2021/05/17 02:42:27;;;;;;;6.82;3.92;;;;;;;9.21;100.00;99874.59;6198123;28;20058;-77
2021/05/17 02:45:29;;;;;;;6.35;4.10;;;;;;;9.23;100.00;99864.84;6198939;28;20050;-77
2021/05/17 02:48:31;;;;;;;4.88;3.90;;;;;;;9.20;100.00;99867.66;6198327;28;20478;-77
2021/05/17 02:51:33;;;;;;;11.13;5.00;;;;;;;9.19;100.00;99873.84;6198405;28;20056;-77
2021/05/17 02:54:38;;;;;;;6.85;5.03;;;;;;;9.14;100.00;99877.59;6197678;28;20458;-77
2021/05/17 02:57:41;;;;;;;6.15;4.45;;;;;;;9.10;100.00;99883.13;6197978;28;20057;-77
2021/05/17 03:00:50;;;;;;;6.47;4.60;;;;;;;9.06;100.00;99876.38;6198185;28;20495;-76
2021/05/17 03:03:52;;;;;;;7.97;4.43;;;;;;;9.04;100.00;99876.47;6197793;28;20051;-76
2021/05/17 03:06:58;;;;;;;7.90;4.97;;;;;;;9.02;100.00;99880.09;6198130;28;20053;-77
2021/05/17 03:10:02;;;;;;;6.25;4.43;;;;;;;8.98;100.00;99870.75;6197814;28;20050;-76
2021/05/17 03:13:07;;;;;;;6.15;4.38;;;;;;;8.98;100.00;99876.81;6197756;28;20050;-76
2021/05/17 03:16:09;;;;;;;7.35;4.60;;;;;;;8.93;100.00;99870.19;6197513;28;20129;-76
2021/05/17 03:19:11;;;;;;;8.18;4.53;;;;;;;8.91;100.00;99870.28;6197901;28;20057;-76
2021/05/17 03:22:13;;;;;;;6.22;4.00;;;;;;;8.85;100.00;99875.88;6197558;28;20427;-76
2021/05/17 03:25:14;;;;;;;6.93;4.85;;;;;;;8.81;100.00;99883.09;6197318;28;20086;-76
2021/05/17 03:28:15;;;;;;;8.38;4.72;;;;;;;8.83;100.00;99893.47;6197640;28;20499;-76
2021/05/17 03:31:17;;;;;;;6.13;4.35;;;;;;;8.80;100.00;99889.25;6197822;28;20061;-76
2021/05/17 03:34:18;;;;;;;6.15;4.60;;;;;;;8.74;100.00;99891.41;6197284;28;20058;-76
2021/05/17 03:37:19;;;;;;;6.15;4.43;;;;;;;8.72;100.00;99893.25;6197444;28;20529;-76
2021/05/17 03:40:21;;;;;;;12.90;5.35;;;;;;;8.71;100.00;99899.44;6197659;28;20514;-76
2021/05/17 03:43:21;;;;;;;9.02;5.18;;;;;;;8.71;100.00;99899.44;6197144;28;20073;-76
2021/05/17 03:46:22;;;;;;;10.63;5.72;;;;;;;8.67;100.00;99908.41;6197518;28;20046;-76
2021/05/17 03:49:23;;;;;;;8.85;5.30;;;;;;;8.69;100.00;99914.41;6197512;28;20058;-76
2021/05/17 03:52:24;;;;;;;8.43;5.90;;;;;;;8.64;100.00;99912.06;6197514;28;20051;-75
2021/05/17 03:55:26;;;;;;;9.77;5.32;;;;;;;8.73;100.00;99905.44;6197123;28;20047;-76
2021/05/17 03:58:27;;;;;;;11.13;7.05;;;;;;;8.63;100.00;99906.00;6197503;28;20058;-76
2021/05/17 04:01:27;;;;;;;10.70;7.20;;;;;;;8.62;100.00;99912.13;6197388;28;20050;-76
2021/05/17 04:04:34;;;;;;;16.48;7.57;;;;;;;8.63;100.00;99906.00;6197221;28;20050;-76
2021/05/17 04:14:22;;;;;;;14.10;9.77;;;;;;;8.60;100.00;99921.88;6201385;28;20051;-76
2021/05/17 04:17:23;;;;;;;14.43;10.02;;;;;;;8.59;100.00;99914.97;6201744;28;20053;-76
2021/05/17 04:20:24;;;;;;;15.48;10.23;;;;;;;8.59;100.00;99914.97;6201416;28;20054;-76
2021/05/17 04:23:28;;;;;;;15.45;9.95;;;;;;;8.65;100.00;99916.38;6201475;28;20061;-76
2021/05/17 04:26:30;;;;;;;19.52;11.20;;;;;;;8.57;100.00;99921.22;6201384;28;20050;-76
2021/05/17 04:29:31;;;;;;;16.45;11.73;;;;;;;8.54;100.00;99922.25;6201389;28;20109;-76
2021/05/17 04:32:32;;;;;;;22.08;12.77;;;;;;;8.53;100.00;99924.94;6201140;28;20058;-76
2021/05/17 04:35:33;;;;;;;17.88;12.60;;;;;;;8.55;100.00;99929.16;6200913;28;20506;-76
2021/05/17 04:38:34;;;;;;;20.63;14.73;;;;;;;8.56;100.00;99936.06;6201330;28;20058;-76
2021/05/17 04:41:35;;;;;;;25.73;14.23;;;;;;;8.62;100.00;99942.72;6201016;28;20129;-76
2021/05/17 04:44:36;;;;;;;25.33;15.02;;;;;;;8.64;100.00;99941.72;6194667;28;20047;-76
2021/05/17 04:47:37;;;;;;;25.70;15.40;;;;;;;8.67;100.00;99943.31;6185959;28;20053;-76
2021/05/17 04:50:38;;;;;;;24.52;15.85;;;;;;;8.67;100.00;99951.16;6188736;28;20058;-76
2021/05/17 04:53:39;;;;;;;28.90;17.58;;;;;;;8.69;100.00;99949.31;6185574;28;20133;-76
2021/05/17 04:56:40;;;;;;;29.80;18.48;;;;;;;8.73;100.00;99953.44;6188354;28;20046;-76
2021/05/17 04:59:41;;;;;;;27.20;18.40;;;;;;;8.80;100.00;99954.75;6186560;28;20046;-76
2021/05/17 05:02:42;;;;;;;27.40;18.05;;;;;;;8.80;100.00;99954.75;6183061;28;20054;-75
2021/05/17 05:05:43;;;;;;;28.90;18.70;;;;;;;8.88;100.00;99946.44;6181602;28;20483;-76
2021/05/17 05:08:44;;;;;;;27.23;17.75;;;;;;;8.95;100.00;99949.53;6200290;28;20430;-76
2021/05/17 05:11:46;;;;;;;29.83;19.65;;;;;;;8.98;100.00;99950.19;6182500;28;20125;-75
2021/05/17 05:14:46;;;;;;;31.67;19.98;;;;;;;9.15;100.00;99955.28;6175983;28;20059;-75
2021/05/17 05:17:47;;;;;;;31.85;19.52;;;;;;;9.19;100.00;99955.09;6176351;28;20073;-76
2021/05/17 05:20:48;;;;;;;33.88;19.00;;;;;;;9.24;100.00;99960.91;6177599;28;20042;-77
2021/05/17 05:23:49;;;;;;;29.70;19.65;;;;;;;9.25;100.00;99954.72;6199955;28;20053;-77
2021/05/17 05:26:58;;;;;;;35.30;19.27;;;;;;;9.30;100.00;99957.91;6196796;28;20051;-76
2021/05/17 05:30:09;;;;;;;31.50;20.17;;;;;;;9.42;100.00;99967.66;6195327;28;20115;-76
2021/05/17 05:33:15;;;;;;;31.95;19.38;;;;;;;9.48;100.00;99969.91;6191118;28;20519;-76
2021/05/17 05:36:16;;;;;;;35.40;20.02;;;;;;;9.42;100.00;99969.44;6198348;28;20495;-77
2021/05/17 05:39:17;;;;;;;36.35;20.65;;;;;;;9.45;100.00;99967.47;6200404;28;20054;-77
2021/05/17 05:42:20;;;;;;;28.92;18.13;;;;;;;9.51;100.00;99967.09;6191889;28;20051;-77
2021/05/17 05:45:21;;;;;;;27.73;17.88;;;;;;;9.59;100.00;99964.84;6198151;28;20511;-77
2021/05/17 05:48:22;;;;;;;26.13;17.63;;;;;;;9.55;100.00;99963.34;6199687;28;20186;-77
2021/05/17 05:51:25;;;;;;;29.02;17.90;;;;;;;9.54;100.00;99969.53;6199696;28;20050;-77
2021/05/17 05:54:26;;;;;;;29.20;17.63;;;;;;;9.58;100.00;99970.19;6199168;28;20047;-77
2021/05/17 05:57:28;;;;;;;30.05;19.02;;;;;;;9.59;100.00;99966.63;6199673;28;20049;-77
2021/05/17 06:00:30;;;;;;;31.00;18.27;;;;;;;9.62;100.00;99966.44;6199227;28;20065;-77
2021/05/17 06:03:31;;;;;;;30.90;18.80;;;;;;;9.66;100.00;99967.94;6191350;28;20050;-77
2021/05/17 06:06:32;;;;;;;28.30;15.85;;;;;;;9.74;100.00;99976.16;6198392;28;20050;-77
2021/05/17 06:09:33;;;;;;;31.52;18.02;;;;;;;9.81;100.00;99974.88;6198485;28;20097;-77
2021/05/17 06:12:37;;;;;;;27.75;16.73;;;;;;;9.79;100.00;99978.50;6190880;28;20467;-76
2021/05/17 06:15:40;;;;;;;28.15;16.90;;;;;;;9.83;100.00;99975.59;6198767;28;20042;-77
2021/05/17 06:18:42;;;;;;;27.77;16.83;;;;;;;9.93;100.00;99982.88;6197927;28;20054;-77
2021/05/17 06:21:44;;;;;;;28.80;16.15;;;;;;;10.17;100.00;99986.56;6197775;28;20469;-76
2021/05/17 06:24:45;;;;;;;21.95;14.35;;;;;;;10.01;100.00;99993.75;6190375;28;20053;-77
2021/05/17 06:27:47;;;;;;;22.08;14.00;;;;;;;10.07;100.00;99996.81;6198727;28;20510;-77
2021/05/17 06:30:51;;;;;;;25.88;15.23;;;;;;;10.11;100.00;100002.72;6198435;28;20050;-77
2021/05/17 06:33:53;;;;;;;22.50;14.15;;;;;;;10.25;100.00;100004.50;6198052;28;20050;-76
2021/05/17 06:36:54;;;;;;;26.42;13.38;;;;;;;10.34;100.00;100009.16;6198597;28;20046;-76
2021/05/17 06:39:55;;;;;;;26.83;13.93;;;;;;;10.37;100.00;100003.72;6198646;28;20054;-76
2021/05/17 06:42:57;;;;;;;25.08;13.02;;;;;;;10.38;100.00;100011.50;6197966;28;20073;-76
2021/05/17 06:45:58;;;;;;;22.27;12.77;;;;;;;10.54;100.00;100010.53;6198128;28;20097;-76
2021/05/17 06:48:59;;;;;;;22.60;12.70;;;;;;;10.50;100.00;100009.03;6181691;28;20061;-76
2021/05/17 06:52:01;;;;;;;21.00;12.13;;;;;;;10.59;100.00;100018.94;6173741;28;20463;-76
2021/05/17 06:55:05;;;;;;;21.75;12.50;;;;;;;10.56;100.00;100022.59;6173837;28;20051;-76
2021/05/17 06:58:12;;;;;;;22.85;12.25;;;;;;;10.60;100.00;100020.63;6174006;28;20463;-75
2021/05/17 07:01:14;;;;;;;21.33;12.20;;;;;;;10.53;100.00;100022.78;6173818;28;20091;-77
2021/05/17 07:04:16;;;;;;;22.90;11.77;;;;;;;10.43;100.00;100021.72;6172430;28;20051;-76
2021/05/17 07:07:22;;;;;;;21.65;12.40;;;;;;;10.33;100.00;100012.75;6173402;28;20135;-76
2021/05/17 07:13:44;;;;;;;25.73;12.90;;;;;;;10.38;100.00;100023.78;6173329;28;20119;-77
2021/05/17 07:16:45;;;;;;;23.80;12.93;;;;;;;10.43;100.00;100024.34;6174175;28;20042;-77
2021/05/17 07:19:46;;;;;;;22.67;11.93;;;;;;;10.48;100.00;100034.56;6191295;28;20046;-77
2021/05/17 07:26:09;;;;;;;20.23;11.35;;;;;;;10.59;100.00;100042.59;6197694;28;20046;-77
2021/05/17 07:29:11;;;;;;;20.02;12.02;;;;;;;10.53;100.00;100046.44;6194574;28;20050;-79
2021/05/17 07:32:12;;;;;;;18.25;11.52;;;;;;;10.49;100.00;100044.97;6184814;28;20132;-79
2021/05/17 07:35:13;;;;;;;19.27;11.20;;;;;;;10.41;100.00;100048.09;6198933;28;20047;-78
2021/05/17 07:38:14;;;;;;;25.17;11.63;;;;;;;10.35;100.00;100045.84;6201517;28;20557;-80
2021/05/17 07:41:15;;;;;;;19.38;10.73;;;;;;;10.30;100.00;100044.44;6199013;28;20415;-80
2021/05/17 07:44:17;;;;;;;18.88;10.93;;;;;;;10.31;100.00;100047.00;6197245;28;20478;-78
2021/05/17 07:47:18;;;;;;;16.55;11.02;;;;;;;10.42;100.00;100051.56;6209509;28;20490;-79
2021/05/17 07:50:19;;;;;;;14.93;10.10;;;;;;;10.54;100.00;100045.53;6209182;28;20061;-78
2021/05/17 07:53:20;;;;;;;17.77;10.80;;;;;;;10.66;100.00;100046.50;6201543;28;20046;-79
2021/05/17 07:56:22;;;;;;;19.65;10.98;;;;;;;10.86;100.00;100047.84;6209796;28;20078;-79
2021/05/17 07:59:27;;;;;;;16.33;9.48;;;;;;;11.05;100.00;100043.03;6206192;28;20054;-78
2021/05/17 08:02:28;;;;;;;16.80;8.93;;;;;;;11.18;100.00;100036.03;6207947;28;20050;-80
2021/05/17 08:05:31;;;;;;;12.65;8.68;;;;;;;11.25;100.00;100040.84;6208541;28;20042;-80
2021/05/17 08:08:31;;;;;;;17.58;8.60;;;;;;;11.23;100.00;100043.59;6203311;28;20150;-81
2021/05/17 08:11:32;;;;;;;14.52;8.88;;;;;;;11.31;100.00;100043.94;6202549;28;20102;-80
2021/05/17 08:14:34;;;;;;;17.55;9.18;;;;;;;11.31;100.00;100049.19;6202187;28;20521;-80
2021/05/17 08:17:35;;;;;;;15.98;9.10;;;;;;;11.32;99.33;100050.03;6202397;28;20046;-80
2021/05/17 08:20:36;;;;;;;15.05;8.32;;;;;;;11.24;98.43;100057.59;6202732;28;20050;-79
2021/05/17 08:23:38;;;;;;;17.45;9.02;;;;;;;11.13;97.49;100053.06;6204671;28;20054;-78
2021/05/17 08:26:40;;;;;;;18.08;9.57;;;;;;;11.00;99.40;100053.03;6206864;28;20058;-80
2021/05/17 08:29:43;;;;;;;12.95;9.07;;;;;;;10.97;100.00;100055.00;6204399;28;20054;-79
2021/05/17 08:32:44;;;;;;;15.20;9.30;;;;;;;11.02;100.00;100047.66;6234236;22;20048;-77
2021/05/17 08:35:46;;;;;;;17.98;8.70;;;;;;;10.98;100.00;100052.28;6250148;28;20041;-77
2021/05/17 08:38:47;;;;;;;20.00;10.45;;;;;;;11.01;100.00;100056.50;6250358;28;20080;-77
2021/05/17 08:41:48;;;;;;;18.65;10.85;;;;;;;11.15;100.00;100053.78;6248521;28;20092;-80
2021/05/17 08:44:51;;;;;;;18.17;10.48;;;;;;;11.31;100.00;100053.59;6237928;28;20049;-80
2021/05/17 08:47:53;;;;;;;22.95;11.15;;;;;;;11.47;99.34;100054.25;6236687;28;20116;-79
2021/05/17 08:50:54;;;;;;;18.40;11.90;;;;;;;11.53;99.12;100052.97;6244623;28;20056;-80
2021/05/17 08:53:58;;;;;;;17.20;10.38;;;;;;;11.57;99.27;100054.44;6260039;28;20073;-80
2021/05/17 08:56:59;;;;;;;20.88;10.63;;;;;;;11.48;99.71;100062.97;6253491;28;20133;-77
2021/05/17 09:00:01;;;;;;;19.70;11.50;;;;;;;11.49;99.53;100055.00;6250231;28;20084;-77
2021/05/17 09:03:02;;;;;;;26.45;12.32;;;;;;;11.58;98.51;100054.38;6250190;28;20053;-77
2021/05/17 09:06:06;;;;;;;23.80;13.88;;;;;;;11.75;99.81;100062.88;6251400;28;20045;-78
2021/05/17 09:09:22;;;;;;;20.35;13.38;;;;;;;11.85;100.00;100054.25;6260196;28;20109;-80
2021/05/17 09:12:22;;;;;;;34.40;14.20;;;;;;;11.94;98.74;100060.66;6255475;28;20077;-77
2021/05/17 09:15:29;;;;;;;26.30;14.90;;;;;;;11.89;98.41;100053.09;6250851;28;20080;-78
2021/05/17 09:18:30;;;;;;;22.80;14.35;;;;;;;11.98;98.28;100056.03;6250185;28;20418;-77
2021/05/17 09:21:54;;;;;;;24.83;13.82;;;;;;;11.88;96.58;100056.69;6249685;28;20049;-76
2021/05/17 09:24:57;;;;;;;21.92;14.18;;;;;;;11.82;97.38;100051.00;6251704;28;20053;-79
2021/05/17 09:28:02;;;;;;;24.73;14.75;;;;;;;11.91;98.89;100045.09;6251538;28;20048;-78
2021/05/17 09:31:06;;;;;;;20.85;14.10;;;;;;;12.05;96.97;100044.13;6249915;28;20049;-79
2021/05/17 09:34:07;;;;;;;20.73;13.73;;;;;;;12.14;97.47;100036.41;6249567;28;20071;-78
2021/05/17 09:37:08;;;;;;;18.73;12.52;;;;;;;12.40;96.25;100034.56;6249099;28;20045;-77
2021/05/17 09:40:17;;;;;;;17.50;12.95;;;;;;;12.77;97.30;100031.03;6249175;28;20061;-77
2021/05/17 09:43:19;;;;;;;18.75;11.57;;;;;;;13.00;93.16;100034.59;6248578;28;20494;-77
2021/05/17 09:46:20;;;;;;;18.25;11.35;;;;;;;12.97;93.15;100045.34;6247984;28;20441;-79
2021/05/17 09:49:28;;;;;;;16.90;10.80;;;;;;;12.91;95.46;100046.66;6249708;28;20054;-80
2021/05/17 09:52:32;;;;;;;12.85;9.10;;;;;;;12.96;91.79;100036.59;6249246;28;20079;-77
2021/05/17 09:55:45;;;;;;;14.07;9.50;;;;;;;12.95;93.69;100041.03;6248792;28;20045;-78
2021/05/17 09:58:47;;;;;;;11.68;7.53;;;;;;;12.91;91.06;100041.38;6243068;28;20042;-79
2021/05/17 10:01:49;;;;;;;9.93;5.50;;;;;;;12.79;91.08;100044.91;6224067;28;20336;-78
2021/05/17 10:04:50;;;;;;;5.05;2.80;;;;;;;12.80;87.07;100042.16;6223970;28;20534;-79
2021/05/17 10:07:52;;;;;;;4.75;3.30;;;;;;;12.84;83.77;100040.97;6223793;28;20085;-79
2021/05/17 10:10:53;;;;;;;4.63;3.00;;;;;;;12.98;86.88;100042.59;6224281;28;20528;-78
2021/05/17 10:13:54;;;;;;;4.47;3.30;;;;;;;13.16;84.48;100033.31;6223979;28;20046;-77
2021/05/17 10:16:56;;;;;;;8.57;4.32;;;;;;;13.16;88.77;100038.56;6223886;28;20046;-77
2021/05/17 10:19:58;;;;;;;8.82;5.20;;;;;;;13.32;85.02;100025.09;6240392;28;20048;-77
2021/05/17 10:22:59;;;;;;;6.25;4.97;;;;;;;13.29;84.45;100037.69;6238042;28;20123;-78
2021/05/17 10:26:11;;;;;;;6.18;4.82;;;;;;;13.35;85.22;100040.72;6247853;28;20041;-78
2021/05/17 10:29:12;;;;;;;10.45;5.10;;;;;;;13.47;84.80;100030.16;6245715;28;20441;-76
2021/05/17 10:32:14;;;;;;;9.02;5.50;;;;;;;13.49;89.29;100031.75;6223363;28;20064;-76
2021/05/17 10:35:18;;;;;;;7.15;4.95;;;;;;;13.61;85.02;100028.13;6222319;28;20475;-77
2021/05/17 10:38:23;;;;;;;6.00;4.40;;;;;;;13.41;83.44;100028.84;6244909;28;20516;-78
2021/05/17 10:41:47;;;;;;;12.73;4.57;;;;;;;13.36;83.45;100020.44;6248016;28;20053;-78
2021/05/17 10:48:21;;;;;;;;;;;;;;;13.15;84.74;100041.34;6214639;28;20541;-77
2021/05/17 10:51:22;;;;;;;10.45;6.00;;;;;;;13.34;86.79;100036.38;6247229;28;19921;-76
2021/05/17 10:54:28;;;;;;;9.20;5.75;;;;;;;13.48;87.48;100031.84;6247025;28;20107;-77
2021/05/17 10:57:32;;;;;;;6.03;5.40;;;;;;;13.68;87.10;100028.53;6247720;28;20049;-77
2021/05/17 11:00:34;;;;;;;7.85;5.65;;;;;;;13.63;86.54;100028.03;6247670;28;20054;-78
2021/05/17 11:03:38;;;;;;;7.72;5.15;;;;;;;13.84;84.64;100023.69;6247373;28;20485;-77
2021/05/17 11:06:39;;;;;;;6.90;4.78;;;;;;;14.01;84.90;100021.53;6247507;28;20052;-77
2021/05/17 11:09:42;;;;;;;6.65;5.20;;;;;;;14.46;80.97;100039.00;6246913;28;20053;-77
2021/05/17 11:13:04;;;;;;;7.65;4.90;;;;;;;14.14;80.91;100025.72;6244855;28;20053;-77
2021/05/17 11:16:06;;;;;;;6.63;4.47;;;;;;;13.76;80.36;100031.38;6246509;28;20132;-77
2021/05/17 11:19:18;;;;;;;7.03;4.80;;;;;;;13.42;83.24;100028.72;6246559;28;20049;-77
2021/05/17 11:22:19;;;;;;;6.38;4.90;;;;;;;13.20;84.14;100032.13;6247222;28;20061;-77
2021/05/17 11:25:47;;;;;;;8.65;5.40;;;;;;;13.01;85.67;100045.00;6246594;28;20049;-77
2021/05/17 11:29:00;;;;;;;5.55;2.13;;;;;;;12.94;87.77;100054.31;6247463;28;20078;-77
2021/05/17 11:32:11;;;;;;;3.65;1.02;;;;;;;12.40;88.06;100063.53;6247330;28;20046;-79
2021/05/17 11:35:21;;;;;;;1.52;0.80;;;;;;;11.99;93.60;100066.47;6247122;28;20045;-77
2021/05/17 11:38:22;;;;;;;1.52;0.93;;;;;;;11.72;96.47;100058.69;6246961;28;20418;-78
2021/05/17 11:41:23;;;;;;;2.70;1.85;;;;;;;11.71;99.69;100056.13;6247267;28;20050;-77
2021/05/17 11:44:28;;;;;;;1.95;1.55;;;;;;;11.97;100.00;100059.63;6246910;28;20091;-77
2021/05/17 11:47:30;;;;;;;2.55;1.90;;;;;;;12.03;100.00;100056.56;6247077;28;20052;-78
2021/05/17 11:50:32;;;;;;;2.92;1.70;;;;;;;12.03;100.00;100057.38;6246742;28;20045;-78
2021/05/17 11:53:33;;;;;;;4.47;1.20;;;;;;;12.07;99.74;100065.91;6246558;28;20053;-76
2021/05/17 11:56:36;;;;;;;1.30;0.73;;;;;;;12.16;99.11;100052.94;6246405;28;20046;-77
2021/05/17 11:59:38;;;;;;;0.88;0.60;;;;;;;12.27;98.87;100059.25;6233614;28;20052;-77
2021/05/17 12:02:43;;;;;;;0.88;0.70;;;;;;;12.30;99.71;100061.66;6222001;28;20069;-77
2021/05/17 12:05:44;;;;;;;0.40;0.40;;;;;;;12.45;99.11;100060.56;6222527;28;20060;-78
2021/05/17 12:08:45;;;;;;;0.40;0.40;;;;;;;12.69;96.80;100050.03;6223255;28;20052;-79
2021/05/17 12:12:01;;;;;;;1.67;0.80;;;;;;;12.82;92.55;100049.97;6222991;28;20050;-79
2021/05/17 12:15:04;;;;;;;1.42;0.40;;;;;;;13.14;86.82;100045.78;6222225;28;20498;-77
2021/05/17 12:18:09;;;;;;;0.85;0.73;;;;;;;13.49;83.75;100044.06;6222363;28;20545;-78
2021/05/17 12:21:12;;;;;;;0.47;0.47;;;;;;;14.17;86.50;100044.00;6222385;28;20056;-78
2021/05/17 12:24:24;;;;;;;0.60;0.40;;;;;;;14.63;86.46;100040.31;6221987;28;20054;-78
2021/05/17 12:27:26;;;;;;;0.82;0.40;;;;;;;14.90;79.84;100031.09;6222193;28;20487;-78
2021/05/17 12:30:27;;;;;;;0.35;0.35;;;;;;;15.21;77.82;100026.69;6224282;28;20466;-78
2021/05/17 12:33:28;;;;;;;2.72;0.50;;;;;;;15.44;74.36;100028.25;6226405;28;20049;-79
2021/05/17 12:36:33;;;;;;;1.80;0.70;;;;;;;15.55;76.50;100022.03;6233515;28;20045;-78
2021/05/17 12:39:34;;;;;;;1.65;0.98;;;;;;;15.83;74.48;100036.41;6250640;28;20500;-77
2021/05/17 12:42:35;;;;;;;2.45;1.13;;;;;;;16.36;74.31;100040.66;6249983;28;20132;-76
2021/05/17 12:45:39;;;;;;;4.57;1.30;;;;;;;16.07;69.60;100040.53;6239913;28;20048;-75
2021/05/17 12:48:41;;;;;;;1.67;1.30;;;;;;;16.04;69.72;100035.53;6234494;28;20404;-76
2021/05/17 12:51:53;;;;;;;3.90;1.88;;;;;;;16.03;73.61;100033.81;6247759;28;20081;-76
2021/05/17 12:55:11;;;;;;;4.20;1.80;;;;;;;15.90;75.75;100039.38;6225112;28;20054;-77
2021/05/17 12:58:13;;;;;;;4.78;1.83;;;;;;;15.78;75.77;100037.78;6243400;28;20046;-77
2021/05/17 13:01:15;;;;;;;1.80;1.42;;;;;;;15.90;71.72;100040.22;6225425;28;20450;-76
2021/05/17 13:04:23;;;;;;;3.63;1.42;;;;;;;15.77;69.56;100036.94;6225005;28;20104;-77
2021/05/17 13:07:25;;;;;;;4.53;2.20;;;;;;;15.71;71.04;100038.34;6224290;28;20057;-78
2021/05/17 13:10:25;;;;;;;5.72;2.17;;;;;;;15.37;71.60;100037.69;6224992;28;20137;-76
2021/05/17 13:14:02;;;;;;;6.18;2.28;;;;;;;15.57;70.63;100037.78;6224694;28;20050;-76
2021/05/17 13:17:04;;;;;;;8.35;2.00;;;;;;;16.07;73.48;100040.53;6173531;28;20083;-76
2021/05/17 13:20:11;;;;;;;4.18;2.20;;;;;;;16.83;72.18;100038.22;6173325;28;20047;-76
2021/05/17 13:30:07;;;;;;;2.45;1.20;;;;;;;17.09;57.74;100030.53;6224593;28;20557;-78
2021/05/17 13:33:09;;;;;;;1.85;0.90;;;;;;;16.94;59.60;100036.28;6224307;28;20053;-77
2021/05/17 13:36:13;;;;;;;4.50;1.00;;;;;;;17.13;58.04;100030.09;6224441;28;20045;-77
2021/05/17 13:39:16;;;;;;;2.05;1.05;;;;;;;17.28;58.11;100024.34;6223847;28;20061;-75
2021/05/17 13:42:17;;;;;;;3.10;1.27;;;;;;;17.27;59.85;100028.00;6224397;28;20089;-75
2021/05/17 13:45:19;;;;;;;3.05;1.30;;;;;;;17.15;54.74;100027.28;6223991;28;20057;-75
2021/05/17 13:48:20;;;;;;;1.85;0.90;;;;;;;17.44;60.01;100025.44;6223964;28;20384;-77
2021/05/17 13:51:25;;;;;;;2.38;1.02;;;;;;;17.64;54.87;100026.22;6231677;28;20064;-77
2021/05/17 13:54:26;;;;;;;2.67;1.05;;;;;;;18.17;57.77;100022.09;6247957;28;20156;-74
2021/05/17 13:57:27;;;;;;;3.63;1.08;;;;;;;18.60;50.71;100015.25;6240065;28;20041;-75
2021/05/17 14:00:28;;;;;;;2.35;0.80;;;;;;;18.39;55.29;100012.84;6248253;28;20132;-75
2021/05/17 14:03:29;;;;;;;4.03;0.55;;;;;;;18.57;48.83;100024.34;6239691;28;20050;-75
2021/05/17 14:06:30;;;;;;;2.20;0.70;;;;;;;18.02;56.60;100028.88;6223569;28;20053;-75
2021/05/17 14:09:32;;;;;;;1.25;0.90;;;;;;;17.55;52.44;100028.91;6223737;28;20104;-74
2021/05/17 14:12:33;;;;;;;3.75;0.82;;;;;;;16.76;58.53;100047.69;6223246;28;20046;-76
2021/05/17 14:15:35;;;;;;;2.90;0.80;;;;;;;16.31;61.15;100048.16;6223373;28;20046;-76
2021/05/17 14:18:36;;;;;;;3.33;1.00;;;;;;;16.15;61.57;100048.66;6224343;28;20077;-77
2021/05/17 14:21:37;;;;;;;1.35;0.90;;;;;;;16.01;60.53;100041.94;6224404;28;20046;-77
2021/05/17 14:24:39;;;;;;;1.83;0.98;;;;;;;15.85;59.26;100045.09;6223397;28;20049;-76
2021/05/17 14:27:40;;;;;;;3.85;1.20;;;;;;;15.66;60.80;100048.44;6222974;28;20053;-76
2021/05/17 14:30:41;;;;;;;3.58;1.20;;;;;;;15.57;62.30;100062.44;6223252;28;20391;-77